Time;durP1;ratioP1;P1;durP2;ratioP2;P2;SDS_P1;SDS_P2;PMS_P1;PMS_P2;Temp;Humidity;BMP_temperature;BMP_pressure;BME280_temperature;BME280_humidity;BME280_pressure;Samples;Min_cycle;Max_cycle;Signal;HPM_P1;HPM_P2
2022/12/30 00:02:43;0.00;0.00;0.62;0.00;0.00;0.62;1.73;0.80;;;23.20;27.70;;;;;;2259422;61;20393;-63
2022/12/30 00:05:28;0.00;0.00;0.62;0.00;0.00;0.62;3.83;0.83;;;23.20;27.70;;;;;;2260229;61;20412;-60
2022/12/30 00:11:21;0.00;0.00;0.62;0.00;0.00;0.62;2.17;1.00;;;23.20;27.70;;;;;;2259483;61;20380;-62
2022/12/30 00:35:46;0.00;0.00;0.62;0.00;0.00;0.62;2.10;1.10;;;23.20;27.70;;;;;;2263719;61;21058;-61
2022/12/30 00:38:30;0.00;0.00;0.62;0.00;0.00;0.62;2.07;0.90;;;23.20;27.70;;;;;;2263506;61;20356;-62
2022/12/30 00:44:19;0.00;0.00;0.62;0.00;0.00;0.62;3.03;1.10;;;23.20;27.70;;;;;;2263567;61;20399;-62
2022/12/30 00:47:04;0.00;0.00;0.62;0.00;0.00;0.62;2.07;1.20;;;23.20;28.20;;;;;;2262600;61;20486;-63
2022/12/30 00:56:09;0.00;0.00;0.62;0.00;0.00;0.62;1.90;0.80;;;23.20;27.80;;;;;;2263320;61;20904;-64
2022/12/30 00:58:54;0.00;0.00;0.62;0.00;0.00;0.62;2.93;1.40;;;23.20;27.80;;;;;;2263770;61;20414;-64
2022/12/30 01:01:39;0.00;0.00;0.62;0.00;0.00;0.62;2.00;1.00;;;23.20;27.70;;;;;;2263350;61;20793;-62
2022/12/30 01:04:24;0.00;0.00;0.62;0.00;0.00;0.62;2.47;1.20;;;23.20;27.70;;;;;;2263860;61;21015;-63
2022/12/30 01:07:10;0.00;0.00;0.62;0.00;0.00;0.62;2.63;1.20;;;23.20;27.70;;;;;;2263883;61;20410;-63
2022/12/30 01:09:55;0.00;0.00;0.62;0.00;0.00;0.62;1.93;1.03;;;23.20;27.70;;;;;;2263207;61;20450;-63
2022/12/30 01:12:40;0.00;0.00;0.62;0.00;0.00;0.62;1.80;0.87;;;23.20;27.70;;;;;;2263261;61;20445;-63
2022/12/30 01:15:25;0.00;0.00;0.62;0.00;0.00;0.62;2.60;1.30;;;23.20;27.70;;;;;;2264579;61;20384;-62
2022/12/30 01:18:10;0.00;0.00;0.62;0.00;0.00;0.62;2.83;1.53;;;23.20;27.60;;;;;;2263559;61;20353;-61
2022/12/30 01:20:59;0.00;0.00;0.62;0.00;0.00;0.62;3.27;1.63;;;23.20;27.40;;;;;;2263529;61;20391;-62
2022/12/30 01:23:45;0.00;0.00;0.62;0.00;0.00;0.62;3.20;1.40;;;23.20;27.30;;;;;;2263817;61;20468;-61
2022/12/30 01:26:29;0.00;0.00;0.62;0.00;0.00;0.62;4.80;1.60;;;23.20;27.10;;;;;;2264103;61;20364;-58
2022/12/30 01:29:20;0.00;0.00;0.62;0.00;0.00;0.62;3.27;1.73;;;23.10;26.80;;;;;;2264174;61;20815;-62
2022/12/30 01:32:07;0.00;0.00;0.62;0.00;0.00;0.62;4.30;2.10;;;23.00;26.30;;;;;;2264266;61;20947;-62
2022/12/30 01:34:53;0.00;0.00;0.62;0.00;0.00;0.62;3.50;1.50;;;23.00;26.30;;;;;;2263896;61;20380;-61
2022/12/30 01:37:38;0.00;0.00;0.62;0.00;0.00;0.62;3.17;1.40;;;23.00;26.40;;;;;;2264026;61;20900;-63
2022/12/30 01:40:24;0.00;0.00;0.62;0.00;0.00;0.62;4.40;1.93;;;22.90;26.00;;;;;;2263079;61;20425;-64
2022/12/30 01:43:12;0.00;0.00;0.62;0.00;0.00;0.62;3.23;1.47;;;22.90;25.90;;;;;;2263569;61;20372;-63
2022/12/30 01:45:57;0.00;0.00;0.62;0.00;0.00;0.62;4.03;1.57;;;22.80;25.90;;;;;;2263522;61;20422;-64
2022/12/30 01:48:43;0.00;0.00;0.62;0.00;0.00;0.62;4.00;1.77;;;22.80;25.80;;;;;;2263784;61;20390;-64
2022/12/30 01:51:31;0.00;0.00;0.62;0.00;0.00;0.62;3.13;1.80;;;22.70;25.70;;;;;;2263773;61;20624;-64
2022/12/30 01:54:16;0.00;0.00;0.62;0.00;0.00;0.62;4.80;1.77;;;22.60;25.80;;;;;;2262961;61;20384;-63
2022/12/30 01:57:03;0.00;0.00;0.62;0.00;0.00;0.62;3.60;2.00;;;22.60;25.80;;;;;;2263490;61;20419;-64
2022/12/30 01:59:48;0.00;0.00;0.62;0.00;0.00;0.62;5.10;2.37;;;22.60;25.70;;;;;;2263366;61;20395;-64
2022/12/30 02:02:33;0.00;0.00;0.62;0.00;0.00;0.62;4.40;2.23;;;22.50;25.50;;;;;;2262865;61;20387;-64
2022/12/30 02:05:21;0.00;0.00;0.62;0.00;0.00;0.62;4.67;1.80;;;22.50;25.40;;;;;;2263588;61;20399;-64
2022/12/30 02:08:12;0.00;0.00;0.62;0.00;0.00;0.62;3.93;2.30;;;22.40;25.80;;;;;;2262956;61;20357;-64
2022/12/30 02:10:57;0.00;0.00;0.62;0.00;0.00;0.62;3.63;1.73;;;22.40;25.40;;;;;;2263712;61;20495;-64
2022/12/30 02:13:43;0.00;0.00;0.62;0.00;0.00;0.62;4.53;2.03;;;22.30;25.20;;;;;;2263580;61;20380;-64
2022/12/30 02:16:47;0.00;0.00;0.62;0.00;0.00;0.62;5.40;2.00;;;22.30;25.20;;;;;;2263014;61;20875;-64
2022/12/30 02:20:14;0.00;0.00;0.62;0.00;0.00;0.62;3.43;1.60;;;22.20;25.10;;;;;;2263459;61;20410;-64
2022/12/30 02:23:34;0.00;0.00;0.62;0.00;0.00;0.62;6.23;1.80;;;22.20;25.20;;;;;;2263166;61;20359;-64
2022/12/30 02:27:20;0.00;0.00;0.62;0.00;0.00;0.62;5.43;1.83;;;22.10;25.20;;;;;;2263576;61;20376;-63
2022/12/30 02:30:22;0.00;0.00;0.62;0.00;0.00;0.62;3.63;2.00;;;22.10;25.20;;;;;;2259715;61;20384;-63
2022/12/30 02:33:25;0.00;0.00;0.62;0.00;0.00;0.62;3.43;1.93;;;22.00;25.20;;;;;;2263330;61;20375;-64
2022/12/30 02:36:18;0.00;0.00;0.62;0.00;0.00;0.62;7.70;2.00;;;22.00;25.30;;;;;;2263623;61;20816;-65
2022/12/30 02:39:11;0.00;0.00;0.62;0.00;0.00;0.62;3.93;1.80;;;21.90;25.40;;;;;;2262995;61;20356;-65
2022/12/30 02:45:18;0.00;0.00;0.62;0.00;0.00;0.62;3.53;1.80;;;21.80;25.10;;;;;;2263292;61;20396;-64
2022/12/30 02:48:07;0.00;0.00;0.62;0.00;0.00;0.62;4.47;2.07;;;21.80;25.20;;;;;;2263600;61;20364;-64
2022/12/30 02:53:58;0.00;0.00;0.62;0.00;0.00;0.62;8.30;2.47;;;21.70;25.10;;;;;;2262780;61;20399;-65
2022/12/30 02:56:48;0.00;0.00;0.62;0.00;0.00;0.62;6.50;2.00;;;21.70;25.10;;;;;;2263401;61;20352;-64
2022/12/30 03:06:14;0.00;0.00;0.62;0.00;0.00;0.62;3.60;1.63;;;21.60;25.10;;;;;;2263691;61;20368;-65
2022/12/30 03:09:09;0.00;0.00;0.62;0.00;0.00;0.62;5.37;2.00;;;21.60;25.20;;;;;;2262931;61;20387;-64
2022/12/30 03:12:04;0.00;0.00;0.62;0.00;0.00;0.62;4.13;2.13;;;21.50;25.50;;;;;;2263347;61;20467;-65
2022/12/30 03:14:54;0.00;0.00;0.62;0.00;0.00;0.62;4.00;1.93;;;21.50;25.00;;;;;;2263025;61;20763;-62
2022/12/30 03:17:41;0.00;0.00;0.62;0.00;0.00;0.62;4.90;1.80;;;21.50;25.10;;;;;;2262982;61;20410;-64
2022/12/30 03:20:26;0.00;0.00;0.62;0.00;0.00;0.62;3.43;1.60;;;21.40;25.00;;;;;;2263393;61;20364;-63
2022/12/30 03:29:23;0.00;0.00;0.62;0.00;0.00;0.62;2.63;1.80;;;21.40;25.20;;;;;;2263679;61;20371;-64
2022/12/30 03:32:12;0.00;0.00;0.62;0.00;0.00;0.62;7.23;2.33;;;21.30;25.70;;;;;;2263092;61;20361;-63
2022/12/30 03:34:58;0.00;0.00;0.62;0.00;0.00;0.62;5.20;2.30;;;21.30;25.20;;;;;;2263643;61;21000;-63
2022/12/30 03:37:47;0.00;0.00;0.62;0.00;0.00;0.62;5.00;1.80;;;21.30;25.20;;;;;;2263559;61;20895;-63
2022/12/30 03:40:38;0.00;0.00;0.62;0.00;0.00;0.62;5.83;2.47;;;21.30;25.20;;;;;;2263970;61;20828;-63
2022/12/30 03:43:25;0.00;0.00;0.62;0.00;0.00;0.62;4.87;1.97;;;21.20;25.10;;;;;;2264168;61;20414;-62
2022/12/30 03:46:11;0.00;0.00;0.62;0.00;0.00;0.62;5.00;2.40;;;21.20;25.20;;;;;;2263375;61;20407;-62
2022/12/30 03:48:55;0.00;0.00;0.62;0.00;0.00;0.62;5.97;2.47;;;21.20;25.10;;;;;;2263946;61;20414;-63
2022/12/30 03:51:40;0.00;0.00;0.62;0.00;0.00;0.62;3.73;1.73;;;21.20;25.10;;;;;;2264125;61;20366;-62
2022/12/30 03:54:25;0.00;0.00;0.62;0.00;0.00;0.62;3.73;2.00;;;21.20;25.10;;;;;;2263799;61;20376;-65
2022/12/30 03:57:11;0.00;0.00;0.62;0.00;0.00;0.62;5.20;2.37;;;21.20;25.20;;;;;;2264292;61;20364;-63
2022/12/30 03:59:56;0.00;0.00;0.62;0.00;0.00;0.62;3.73;2.00;;;21.10;25.10;;;;;;2263040;61;20400;-63
2022/12/30 04:02:40;0.00;0.00;0.62;0.00;0.00;0.62;4.87;2.33;;;21.10;25.10;;;;;;2263563;61;20878;-65
2022/12/30 04:05:25;0.00;0.00;0.62;0.00;0.00;0.62;6.70;2.37;;;21.10;25.10;;;;;;2264116;61;20379;-64
2022/12/30 04:08:09;0.00;0.00;0.62;0.00;0.00;0.62;2.90;1.70;;;21.10;25.10;;;;;;2263477;61;20364;-65
2022/12/30 04:10:54;0.00;0.00;0.62;0.00;0.00;0.62;4.97;2.03;;;21.10;25.20;;;;;;2264019;61;20406;-65
2022/12/30 04:13:40;0.00;0.00;0.62;0.00;0.00;0.62;4.23;1.77;;;21.10;25.20;;;;;;2263849;61;20910;-63
2022/12/30 04:16:24;0.00;0.00;0.62;0.00;0.00;0.62;4.53;1.80;;;21.00;25.10;;;;;;2263761;61;20391;-65
2022/12/30 04:19:09;0.00;0.00;0.62;0.00;0.00;0.62;4.73;1.77;;;21.00;25.10;;;;;;2264132;61;20915;-65
2022/12/30 04:21:54;0.00;0.00;0.62;0.00;0.00;0.62;4.30;1.90;;;21.00;25.10;;;;;;2263289;61;20392;-63
2022/12/30 04:24:38;0.00;0.00;0.62;0.00;0.00;0.62;6.43;2.20;;;21.00;25.20;;;;;;2263777;61;20379;-62
2022/12/30 04:27:23;0.00;0.00;0.62;0.00;0.00;0.62;4.63;2.43;;;20.90;25.10;;;;;;2264348;61;20414;-62
2022/12/30 04:30:11;0.00;0.00;0.62;0.00;0.00;0.62;4.73;1.77;;;20.90;25.10;;;;;;2262959;61;20363;-64
2022/12/30 04:32:56;0.00;0.00;0.62;0.00;0.00;0.62;4.20;2.03;;;20.90;25.20;;;;;;2264063;61;20405;-63
2022/12/30 04:35:40;0.00;0.00;0.62;0.00;0.00;0.62;4.83;2.60;;;20.90;25.20;;;;;;2265261;61;20395;-64
2022/12/30 04:38:26;0.00;0.00;0.62;0.00;0.00;0.62;4.53;2.00;;;20.90;25.20;;;;;;2263934;61;20487;-63
2022/12/30 04:41:11;0.00;0.00;0.62;0.00;0.00;0.62;3.90;2.13;;;20.90;25.20;;;;;;2265214;61;20388;-63
2022/12/30 04:43:57;0.00;0.00;0.62;0.00;0.00;0.62;4.43;2.20;;;20.80;25.10;;;;;;2264439;61;20643;-64
2022/12/30 04:46:42;0.00;0.00;0.62;0.00;0.00;0.62;4.13;2.07;;;20.80;25.20;;;;;;2264010;61;20391;-64
2022/12/30 04:49:27;0.00;0.00;0.62;0.00;0.00;0.62;5.13;2.20;;;20.80;25.20;;;;;;2264090;61;20360;-64
2022/12/30 04:52:12;0.00;0.00;0.62;0.00;0.00;0.62;6.00;2.10;;;20.80;25.20;;;;;;2263168;61;20356;-64
2022/12/30 04:54:56;0.00;0.00;0.62;0.00;0.00;0.62;4.20;2.20;;;20.80;25.20;;;;;;2264062;61;21003;-64
2022/12/30 04:57:41;0.00;0.00;0.62;0.00;0.00;0.62;5.57;3.10;;;20.80;25.30;;;;;;2264159;61;20360;-64
2022/12/30 05:00:26;0.00;0.00;0.62;0.00;0.00;0.62;4.77;2.20;;;20.80;25.30;;;;;;2263332;61;20360;-64
2022/12/30 05:03:12;0.00;0.00;0.62;0.00;0.00;0.62;4.80;2.27;;;20.70;25.20;;;;;;2263686;61;20441;-64
2022/12/30 05:05:57;0.00;0.00;0.62;0.00;0.00;0.62;6.97;2.40;;;20.70;25.30;;;;;;2263216;61;20414;-65
2022/12/30 05:08:42;0.00;0.00;0.62;0.00;0.00;0.62;6.40;3.07;;;20.70;25.30;;;;;;2264048;61;20447;-63
2022/12/30 05:11:26;0.00;0.00;0.62;0.00;0.00;0.62;6.33;1.90;;;20.70;25.30;;;;;;2264047;61;20398;-64
2022/12/30 05:14:11;0.00;0.00;0.62;0.00;0.00;0.62;4.80;2.50;;;20.70;25.30;;;;;;2262964;61;20414;-64
2022/12/30 05:16:56;0.00;0.00;0.62;0.00;0.00;0.62;5.00;2.50;;;20.60;25.20;;;;;;2263329;61;20360;-63
2022/12/30 05:19:42;0.00;0.00;0.62;0.00;0.00;0.62;4.57;2.17;;;20.60;25.30;;;;;;2263846;61;20485;-63
2022/12/30 05:22:27;0.00;0.00;0.62;0.00;0.00;0.62;5.57;2.67;;;20.60;25.30;;;;;;2262551;61;20472;-64
2022/12/30 05:28:15;0.00;0.00;0.62;0.00;0.00;0.62;4.37;2.00;;;20.60;25.30;;;;;;2262776;61;20482;-63
2022/12/30 05:31:00;0.00;0.00;0.62;0.00;0.00;0.62;5.67;1.90;;;20.60;25.40;;;;;;2264028;61;20411;-64
2022/12/30 05:33:45;0.00;0.00;0.62;0.00;0.00;0.62;5.93;2.03;;;20.60;25.40;;;;;;2263505;61;20376;-63
2022/12/30 05:36:31;0.00;0.00;0.62;0.00;0.00;0.62;5.57;2.43;;;20.60;25.40;;;;;;2263034;61;20403;-64
2022/12/30 05:39:16;0.00;0.00;0.62;0.00;0.00;0.62;7.23;2.70;;;20.60;25.40;;;;;;2263921;61;20399;-62
2022/12/30 05:42:01;0.00;0.00;0.62;0.00;0.00;0.62;3.40;2.00;;;20.60;25.50;;;;;;2263863;61;21150;-64
2022/12/30 05:44:46;0.00;0.00;0.62;0.00;0.00;0.62;6.07;2.53;;;20.60;25.50;;;;;;2263239;61;20803;-62
2022/12/30 05:47:30;0.00;0.00;0.62;0.00;0.00;0.62;6.50;2.33;;;20.60;25.50;;;;;;2263904;61;20363;-61
2022/12/30 05:50:15;0.00;0.00;0.62;0.00;0.00;0.62;2.97;1.60;;;20.60;25.50;;;;;;2263713;61;20407;-64
2022/12/30 05:53:01;0.00;0.00;0.62;0.00;0.00;0.62;4.20;2.30;;;20.60;25.50;;;;;;2263827;61;20356;-63
2022/12/30 05:55:47;0.00;0.00;0.62;0.00;0.00;0.62;4.27;2.20;;;20.60;25.60;;;;;;2263783;61;20759;-62
2022/12/30 05:58:32;0.00;0.00;0.62;0.00;0.00;0.62;3.27;1.77;;;20.60;25.60;;;;;;2263335;61;20403;-61
2022/12/30 06:01:16;0.00;0.00;0.62;0.00;0.00;0.62;5.03;2.60;;;20.60;25.60;;;;;;2263846;61;20391;-61
2022/12/30 06:04:01;0.00;0.00;0.62;0.00;0.00;0.62;5.40;2.17;;;20.60;25.60;;;;;;2264106;61;20396;-62
2022/12/30 06:06:46;0.00;0.00;0.62;0.00;0.00;0.62;4.90;1.77;;;20.60;25.60;;;;;;2263399;61;20348;-61
2022/12/30 06:09:32;0.00;0.00;0.62;0.00;0.00;0.62;5.03;1.87;;;20.60;25.60;;;;;;2264058;61;20430;-63
2022/12/30 06:12:17;0.00;0.00;0.62;0.00;0.00;0.62;4.53;2.00;;;20.60;25.60;;;;;;2263530;61;20345;-63
2022/12/30 06:15:01;0.00;0.00;0.62;0.00;0.00;0.62;4.17;2.00;;;20.60;25.60;;;;;;2263490;61;20383;-63
2022/12/30 06:17:46;0.00;0.00;0.62;0.00;0.00;0.62;6.47;1.80;;;20.60;25.50;;;;;;2263620;61;20356;-64
2022/12/30 06:20:33;0.00;0.00;0.62;0.00;0.00;0.62;3.80;1.83;;;20.60;25.50;;;;;;2263028;61;20367;-64
2022/12/30 06:23:18;0.00;0.00;0.62;0.00;0.00;0.62;3.30;2.07;;;20.50;25.50;;;;;;2263678;61;20384;-59
2022/12/30 06:26:04;0.00;0.00;0.62;0.00;0.00;0.62;4.70;1.87;;;20.50;25.50;;;;;;2263887;61;20375;-62
2022/12/30 06:28:49;0.00;0.00;0.62;0.00;0.00;0.62;6.10;1.93;;;20.50;25.50;;;;;;2263171;61;20422;-62
2022/12/30 06:31:33;0.00;0.00;0.62;0.00;0.00;0.62;3.43;1.60;;;20.50;25.60;;;;;;2263591;61;20380;-62
2022/12/30 06:34:18;0.00;0.00;0.62;0.00;0.00;0.62;3.63;1.50;;;20.50;25.60;;;;;;2263331;61;20395;-62
2022/12/30 06:37:03;0.00;0.00;0.62;0.00;0.00;0.62;4.57;1.93;;;20.50;26.10;;;;;;2263472;61;20356;-62
2022/12/30 06:39:48;0.00;0.00;0.62;0.00;0.00;0.62;5.00;2.20;;;20.50;25.60;;;;;;2263667;61;20360;-62
2022/12/30 06:42:33;0.00;0.00;0.62;0.00;0.00;0.62;3.80;1.73;;;20.50;25.60;;;;;;2262726;61;20418;-62
2022/12/30 06:45:18;0.00;0.00;0.62;0.00;0.00;0.62;5.20;1.73;;;20.50;25.60;;;;;;2263430;61;20955;-62
2022/12/30 06:48:04;0.00;0.00;0.62;0.00;0.00;0.62;4.00;1.50;;;20.50;25.60;;;;;;2263421;61;20918;-62
2022/12/30 06:50:49;0.00;0.00;0.62;0.00;0.00;0.62;3.63;1.47;;;20.50;25.60;;;;;;2262749;61;20360;-62
2022/12/30 06:53:34;0.00;0.00;0.62;0.00;0.00;0.62;5.07;2.00;;;20.50;25.70;;;;;;2263303;61;21098;-62
2022/12/30 06:56:19;0.00;0.00;0.62;0.00;0.00;0.62;3.00;1.20;;;20.50;26.20;;;;;;2263546;61;20387;-62
2022/12/30 06:59:05;0.00;0.00;0.62;0.00;0.00;0.62;3.40;1.47;;;20.50;25.70;;;;;;2262806;61;20943;-62
2022/12/30 07:01:50;0.00;0.00;0.62;0.00;0.00;0.62;3.53;1.83;;;20.50;25.60;;;;;;2263413;61;20398;-62
2022/12/30 07:04:35;0.00;0.00;0.62;0.00;0.00;0.62;5.77;1.63;;;20.50;25.60;;;;;;2262766;61;21127;-62
2022/12/30 07:07:19;0.00;0.00;0.62;0.00;0.00;0.62;4.23;1.80;;;20.50;25.60;;;;;;2263204;61;20359;-62
2022/12/30 07:10:05;0.00;0.00;0.62;0.00;0.00;0.62;3.90;1.70;;;20.50;25.50;;;;;;2263860;61;20367;-61
2022/12/30 07:12:50;0.00;0.00;0.62;0.00;0.00;0.62;2.97;1.80;;;20.50;25.50;;;;;;2263289;61;20958;-62
2022/12/30 07:15:35;0.00;0.00;0.62;0.00;0.00;0.62;3.07;1.40;;;20.50;25.60;;;;;;2263326;61;20438;-62
2022/12/30 07:18:20;0.00;0.00;0.62;0.00;0.00;0.62;3.83;1.70;;;20.50;25.60;;;;;;2263239;61;20364;-62
2022/12/30 07:21:05;0.00;0.00;0.62;0.00;0.00;0.62;3.93;2.10;;;20.50;25.60;;;;;;2263054;61;20403;-62
2022/12/30 07:23:50;0.00;0.00;0.62;0.00;0.00;0.62;2.20;1.50;;;20.50;25.60;;;;;;2262852;61;20421;-62
2022/12/30 07:26:34;0.00;0.00;0.62;0.00;0.00;0.62;4.40;2.13;;;20.50;25.60;;;;;;2262648;61;20823;-62
2022/12/30 07:29:20;0.00;0.00;0.62;0.00;0.00;0.62;2.97;1.70;;;20.50;25.60;;;;;;2264172;61;20361;-62
2022/12/30 07:32:07;0.00;0.00;0.62;0.00;0.00;0.62;4.37;2.00;;;20.50;25.60;;;;;;2263938;61;20359;-62
2022/12/30 07:34:52;0.00;0.00;0.62;0.00;0.00;0.62;5.37;2.00;;;20.50;25.60;;;;;;2259698;61;20389;-62
2022/12/30 07:37:18;0.00;0.00;0.62;0.00;0.00;0.62;2.43;1.57;;;20.50;25.70;;;;;;2260045;61;20874;-62
2022/12/30 07:39:45;0.00;0.00;0.62;0.00;0.00;0.62;6.23;1.80;;;20.50;25.60;;;;;;2259606;61;20353;-64
2022/12/30 07:42:11;0.00;0.00;0.62;0.00;0.00;0.62;3.77;2.03;;;20.40;25.60;;;;;;2259271;61;20891;-63
2022/12/30 07:44:37;0.00;0.00;0.62;0.00;0.00;0.62;4.10;2.10;;;20.50;25.60;;;;;;2259245;61;20450;-63
2022/12/30 07:47:04;0.00;0.00;0.62;0.00;0.00;0.62;5.93;2.07;;;20.50;25.60;;;;;;2259648;61;20457;-64
2022/12/30 07:49:31;0.00;0.00;0.62;0.00;0.00;0.62;3.80;1.60;;;20.40;25.60;;;;;;2258545;61;20453;-64
2022/12/30 07:51:58;0.00;0.00;0.62;0.00;0.00;0.62;4.73;2.20;;;20.40;25.50;;;;;;2259919;61;20354;-64
2022/12/30 07:54:24;0.00;0.00;0.62;0.00;0.00;0.62;5.23;1.97;;;20.40;25.60;;;;;;2259406;61;20819;-62
2022/12/30 07:56:50;0.00;0.00;0.62;0.00;0.00;0.62;3.40;1.67;;;20.40;25.60;;;;;;2258371;61;20405;-64
2022/12/30 07:59:17;0.00;0.00;0.62;0.00;0.00;0.62;7.13;2.40;;;20.40;25.60;;;;;;2259830;61;20396;-57
2022/12/30 08:01:43;0.00;0.00;0.62;0.00;0.00;0.62;6.17;2.53;;;20.40;25.60;;;;;;2259458;61;20898;-62
2022/12/30 08:04:09;0.00;0.00;0.62;0.00;0.00;0.62;3.63;2.20;;;20.40;25.60;;;;;;2258441;61;20377;-64
2022/12/30 08:06:37;0.00;0.00;0.62;0.00;0.00;0.62;5.97;2.30;;;20.40;25.60;;;;;;2259817;61;20436;-62
2022/12/30 08:09:04;0.00;0.00;0.62;0.00;0.00;0.62;5.37;2.17;;;20.40;25.60;;;;;;2260224;61;20870;-61
2022/12/30 08:11:30;0.00;0.00;0.62;0.00;0.00;0.62;4.70;2.10;;;20.40;25.60;;;;;;2260009;61;20354;-63
2022/12/30 08:13:57;0.00;0.00;0.62;0.00;0.00;0.62;4.20;1.80;;;20.30;25.50;;;;;;2263238;61;20377;-64
2022/12/30 08:16:23;0.00;0.00;0.62;0.00;0.00;0.62;3.10;1.63;;;20.30;25.50;;;;;;2261427;61;20394;-61
2022/12/30 08:18:49;0.00;0.00;0.62;0.00;0.00;0.62;3.10;2.13;;;20.30;25.50;;;;;;2259691;61;20362;-63
2022/12/30 08:21:17;0.00;0.00;0.62;0.00;0.00;0.62;3.20;1.73;;;20.30;25.60;;;;;;2258726;61;20357;-63
2022/12/30 08:23:46;0.00;0.00;0.62;0.00;0.00;0.62;3.27;1.63;;;20.30;25.60;;;;;;2258452;61;20382;-63
2022/12/30 08:26:16;0.00;0.00;0.62;0.00;0.00;0.62;5.77;2.33;;;20.30;25.60;;;;;;2259326;61;20369;-61
2022/12/30 08:28:42;0.00;0.00;0.62;0.00;0.00;0.62;3.40;2.00;;;20.30;25.60;;;;;;2261259;61;20400;-60
2022/12/30 08:31:11;0.00;0.00;0.62;0.00;0.00;0.62;5.40;1.93;;;20.30;25.60;;;;;;2259540;61;20353;-64
2022/12/30 08:33:38;0.00;0.00;0.62;0.00;0.00;0.62;3.83;2.20;;;20.30;25.50;;;;;;2258993;61;20572;-59
2022/12/30 08:36:07;0.00;0.00;0.62;0.00;0.00;0.62;3.40;1.80;;;20.20;25.50;;;;;;2259470;61;20386;-61
2022/12/30 08:38:34;0.00;0.00;0.62;0.00;0.00;0.62;6.13;1.87;;;20.20;25.50;;;;;;2259846;61;20353;-63
2022/12/30 08:41:08;0.00;0.00;0.62;0.00;0.00;0.62;4.47;1.60;;;20.20;25.50;;;;;;2258452;61;20886;-63
2022/12/30 08:43:34;0.00;0.00;0.62;0.00;0.00;0.62;3.70;1.73;;;20.20;25.50;;;;;;2259030;61;20374;-58
2022/12/30 08:46:01;0.00;0.00;0.62;0.00;0.00;0.62;4.40;2.00;;;20.20;25.50;;;;;;2257837;61;20358;-61
2022/12/30 08:48:28;0.00;0.00;0.62;0.00;0.00;0.62;4.33;1.70;;;20.20;25.50;;;;;;2255126;61;20412;-61
2022/12/30 08:50:55;0.00;0.00;0.62;0.00;0.00;0.62;3.50;2.13;;;20.20;25.50;;;;;;2259035;61;20416;-61
2022/12/30 08:53:21;0.00;0.00;0.62;0.00;0.00;0.62;7.93;2.27;;;20.20;25.50;;;;;;2259658;61;20441;-57
2022/12/30 08:55:48;0.00;0.00;0.62;0.00;0.00;0.62;4.73;1.93;;;20.20;25.50;;;;;;2259235;61;20441;-56
2022/12/30 08:58:15;0.00;0.00;0.62;0.00;0.00;0.62;2.57;1.20;;;20.30;25.60;;;;;;2259604;61;20358;-58
2022/12/30 09:00:41;0.00;0.00;0.62;0.00;0.00;0.62;2.37;1.33;;;20.30;25.70;;;;;;2259837;61;20362;-54
2022/12/30 09:03:08;0.00;0.00;0.62;0.00;0.00;0.62;2.30;1.50;;;20.30;25.70;;;;;;2259118;61;20381;-52
2022/12/30 09:05:35;0.00;0.00;0.62;0.00;0.00;0.62;4.33;1.60;;;20.40;25.80;;;;;;2259706;61;20420;-57
2022/12/30 09:08:01;0.00;0.00;0.62;0.00;0.00;0.62;2.90;1.20;;;20.40;25.80;;;;;;2259846;61;20386;-57
2022/12/30 09:10:27;0.00;0.00;0.62;0.00;0.00;0.62;3.60;1.20;;;20.50;25.90;;;;;;2259355;61;20354;-56
2022/12/30 09:12:54;0.00;0.00;0.62;0.00;0.00;0.62;4.63;1.77;;;20.50;25.90;;;;;;2259337;61;20449;-62
2022/12/30 09:15:21;0.00;0.00;0.62;0.00;0.00;0.62;4.53;1.53;;;20.60;26.50;;;;;;2259455;61;20385;-56
2022/12/30 09:17:47;0.00;0.00;0.62;0.00;0.00;0.62;3.20;1.20;;;20.60;26.00;;;;;;2258759;61;20365;-57
2022/12/30 09:20:14;0.00;0.00;0.62;0.00;0.00;0.62;2.93;1.40;;;20.60;26.00;;;;;;2259390;61;20729;-56
2022/12/30 09:22:40;0.00;0.00;0.62;0.00;0.00;0.62;2.60;1.13;;;20.70;26.10;;;;;;2259258;61;20822;-57
2022/12/30 09:25:07;0.00;0.00;0.62;0.00;0.00;0.62;2.70;1.40;;;20.70;26.10;;;;;;2258823;61;20412;-53
2022/12/30 09:27:34;0.00;0.00;0.62;0.00;0.00;0.62;2.47;1.30;;;20.80;26.20;;;;;;2259515;61;20346;-58
2022/12/30 09:30:00;0.00;0.00;0.62;0.00;0.00;0.62;2.13;1.17;;;20.80;26.20;;;;;;2259491;61;20350;-57
2022/12/30 09:32:28;0.00;0.00;0.62;0.00;0.00;0.62;2.50;1.17;;;20.90;26.20;;;;;;2258493;61;20792;-54
2022/12/30 09:34:54;0.00;0.00;0.62;0.00;0.00;0.62;6.90;1.60;;;20.90;26.20;;;;;;2259392;61;20378;-58
2022/12/30 09:37:21;0.00;0.00;0.62;0.00;0.00;0.62;2.83;1.50;;;20.90;26.20;;;;;;2259102;61;20870;-54
2022/12/30 09:39:47;0.00;0.00;0.62;0.00;0.00;0.62;2.87;1.43;;;21.00;26.20;;;;;;2258605;61;20913;-57
2022/12/30 09:45:18;0.00;0.00;0.62;0.00;0.00;0.62;2.17;1.13;;;21.10;26.30;;;;;;2259660;61;20419;-57
2022/12/30 09:47:50;0.00;0.00;0.62;0.00;0.00;0.62;3.50;1.50;;;21.10;26.20;;;;;;2258732;61;20880;-59
2022/12/30 09:50:28;0.00;0.00;0.62;0.00;0.00;0.62;2.47;1.00;;;21.20;26.20;;;;;;2259610;61;20362;-59
2022/12/30 09:53:00;0.00;0.00;0.62;0.00;0.00;0.62;2.10;1.17;;;21.20;26.20;;;;;;2259411;61;20354;-59
2022/12/30 09:55:31;0.00;0.00;0.62;0.00;0.00;0.62;4.37;1.47;;;21.20;26.20;;;;;;2258786;61;20396;-59
2022/12/30 09:58:02;0.00;0.00;0.62;0.00;0.00;0.62;2.80;1.20;;;21.20;26.20;;;;;;2259552;61;20354;-57
2022/12/30 10:00:33;0.00;0.00;0.62;0.00;0.00;0.62;4.97;1.40;;;21.30;26.20;;;;;;2259563;61;20361;-57
2022/12/30 10:03:05;0.00;0.00;0.62;0.00;0.00;0.62;2.23;1.20;;;21.30;26.20;;;;;;2258343;61;20898;-58
2022/12/30 10:06:02;0.00;0.00;0.62;0.00;0.00;0.62;2.40;1.23;;;21.30;26.10;;;;;;2259588;61;20382;-58
2022/12/30 10:08:44;0.00;0.00;0.62;0.00;0.00;0.62;3.20;1.20;;;21.30;26.10;;;;;;2258699;61;20357;-58
2022/12/30 10:11:27;0.00;0.00;0.62;0.00;0.00;0.62;2.83;1.20;;;21.40;26.10;;;;;;2258862;61;20384;-59
2022/12/30 10:14:09;0.00;0.00;0.62;0.00;0.00;0.62;1.70;1.10;;;21.40;26.10;;;;;;2255317;61;20380;-58
2022/12/30 10:16:52;0.00;0.00;0.62;0.00;0.00;0.62;2.90;1.10;;;21.40;26.10;;;;;;2259112;61;20407;-58
2022/12/30 10:19:30;0.00;0.00;0.62;0.00;0.00;0.62;2.80;1.37;;;21.50;26.10;;;;;;2258926;61;20397;-58
2022/12/30 10:22:04;0.00;0.00;0.62;0.00;0.00;0.62;2.30;1.10;;;21.50;26.10;;;;;;2259247;61;20381;-58
2022/12/30 10:24:45;0.00;0.00;0.62;0.00;0.00;0.62;2.67;1.10;;;21.50;26.10;;;;;;2258769;61;20408;-59
2022/12/30 10:27:24;0.00;0.00;0.62;0.00;0.00;0.62;2.97;1.00;;;21.50;26.10;;;;;;2259463;61;20396;-58
2022/12/30 10:29:51;0.00;0.00;0.62;0.00;0.00;0.62;1.83;1.00;;;21.60;26.10;;;;;;2259136;61;20445;-58
2022/12/30 10:32:20;0.00;0.00;0.62;0.00;0.00;0.62;2.03;0.90;;;21.60;26.10;;;;;;2258823;61;20909;-58
2022/12/30 10:34:54;0.00;0.00;0.62;0.00;0.00;0.62;2.23;0.93;;;21.60;26.10;;;;;;2259224;61;20853;-58
2022/12/30 10:37:33;0.00;0.00;0.62;0.00;0.00;0.62;2.23;0.90;;;21.60;26.00;;;;;;2259278;61;20368;-59
2022/12/30 10:40:07;0.00;0.00;0.62;0.00;0.00;0.62;1.67;0.93;;;21.70;26.10;;;;;;2258891;61;20346;-58
2022/12/30 10:42:55;0.00;0.00;0.62;0.00;0.00;0.62;2.40;1.30;;;21.70;26.00;;;;;;2259043;61;20467;-57
2022/12/30 10:45:46;0.00;0.00;0.62;0.00;0.00;0.62;1.77;1.00;;;21.70;26.00;;;;;;2258903;61;20914;-59
2022/12/30 10:48:52;0.00;0.00;0.62;0.00;0.00;0.62;2.77;1.03;;;21.70;26.00;;;;;;2258981;61;20401;-57
2022/12/30 10:51:20;0.00;0.00;0.62;0.00;0.00;0.62;2.53;0.97;;;21.80;26.00;;;;;;2259267;61;20411;-58
2022/12/30 10:53:50;0.00;0.00;0.62;0.00;0.00;0.62;1.83;1.33;;;21.80;26.00;;;;;;2257990;61;20805;-59
2022/12/30 10:56:22;0.00;0.00;0.62;0.00;0.00;0.62;1.60;0.90;;;21.80;26.00;;;;;;2258774;61;20406;-57
2022/12/30 10:58:48;0.00;0.00;0.62;0.00;0.00;0.62;1.80;0.90;;;21.80;25.90;;;;;;2258527;61;20787;-57
2022/12/30 11:01:19;0.00;0.00;0.62;0.00;0.00;0.62;2.00;0.87;;;21.80;25.90;;;;;;2258644;61;20362;-58
2022/12/30 11:03:49;0.00;0.00;0.62;0.00;0.00;0.62;2.43;1.17;;;21.90;25.90;;;;;;2259078;61;20789;-58
2022/12/30 11:06:23;0.00;0.00;0.62;0.00;0.00;0.62;1.50;0.80;;;21.90;25.90;;;;;;2259253;61;20365;-58
2022/12/30 11:08:51;0.00;0.00;0.62;0.00;0.00;0.62;2.00;0.90;;;21.90;25.90;;;;;;2258391;61;20365;-58
2022/12/30 11:11:18;0.00;0.00;0.62;0.00;0.00;0.62;1.70;1.00;;;21.90;25.80;;;;;;2258626;61;20362;-59
2022/12/30 11:16:42;0.00;0.00;0.62;0.00;0.00;0.62;1.60;0.80;;;21.90;25.80;;;;;;2258745;61;20354;-59
2022/12/30 11:19:23;0.00;0.00;0.62;0.00;0.00;0.62;1.53;0.90;;;22.00;25.80;;;;;;2259040;61;20728;-57
2022/12/30 11:22:10;0.00;0.00;0.62;0.00;0.00;0.62;1.80;0.90;;;22.00;25.70;;;;;;2258750;61;20605;-58
2022/12/30 11:25:02;0.00;0.00;0.62;0.00;0.00;0.62;2.13;1.03;;;22.00;25.70;;;;;;2258887;61;20439;-59
2022/12/30 11:27:51;0.00;0.00;0.62;0.00;0.00;0.62;1.50;0.90;;;22.00;25.70;;;;;;2258786;61;20636;-58
2022/12/30 11:30:41;0.00;0.00;0.62;0.00;0.00;0.62;1.60;0.80;;;22.00;25.70;;;;;;2259959;61;20365;-58
2022/12/30 11:33:30;0.00;0.00;0.62;0.00;0.00;0.62;1.90;0.70;;;22.00;25.70;;;;;;2258996;61;20774;-58
2022/12/30 11:36:30;0.00;0.00;0.62;0.00;0.00;0.62;2.20;0.93;;;22.00;25.70;;;;;;2259201;61;20372;-57
2022/12/30 11:39:32;0.00;0.00;0.62;0.00;0.00;0.62;2.47;1.53;;;22.00;25.70;;;;;;2258935;61;20412;-57